sensor_id;sensor_type;location;lat;lon;timestamp;temperature;humidity
21167;DHT22;10741;52.272;9.580;2024-03-08T00:02:13;0.10;99.90
21167;DHT22;10741;52.272;9.580;2024-03-08T00:04:39;0.00;99.90
21167;DHT22;10741;52.272;9.580;2024-03-08T00:07:05;0.00;99.90
21167;DHT22;10741;52.272;9.580;2024-03-08T00:09:32;0.00;99.90
21167;DHT22;10741;52.272;9.580;2024-03-08T00:11:57;-0.10;99.90
21167;DHT22;10741;52.272;9.580;2024-03-08T00:14:25;-0.10;99.90
21167;DHT22;10741;52.272;9.580;2024-03-08T00:16:50;-0.20;99.90
21167;DHT22;10741;52.272;9.580;2024-03-08T00:19:18;-0.20;99.90
21167;DHT22;10741;52.272;9.580;2024-03-08T00:21:43;-0.30;99.90
21167;DHT22;10741;52.272;9.580;2024-03-08T00:24:10;-0.30;99.90
21167;DHT22;10741;52.272;9.580;2024-03-08T00:26:36;-0.30;99.90
21167;DHT22;10741;52.272;9.580;2024-03-08T00:29:01;-0.40;99.90
21167;DHT22;10741;52.272;9.580;2024-03-08T00:31:27;-0.40;99.90
21167;DHT22;10741;52.272;9.580;2024-03-08T00:33:53;-0.50;99.90
21167;DHT22;10741;52.272;9.580;2024-03-08T00:36:19;-0.50;99.90
21167;DHT22;10741;52.272;9.580;2024-03-08T00:38:45;-0.60;99.90
21167;DHT22;10741;52.272;9.580;2024-03-08T00:41:11;-0.60;99.90
21167;DHT22;10741;52.272;9.580;2024-03-08T00:43:36;-0.60;99.90
21167;DHT22;10741;52.272;9.580;2024-03-08T00:46:02;-0.60;99.90
21167;DHT22;10741;52.272;9.580;2024-03-08T00:48:28;-0.60;99.90
21167;DHT22;10741;52.272;9.580;2024-03-08T00:50:54;-0.60;99.90
21167;DHT22;10741;52.272;9.580;2024-03-08T00:53:20;-0.70;99.90
21167;DHT22;10741;52.272;9.580;2024-03-08T00:55:46;-0.70;99.90
21167;DHT22;10741;52.272;9.580;2024-03-08T00:58:12;-0.70;99.90
21167;DHT22;10741;52.272;9.580;2024-03-08T01:00:37;-0.70;99.90
21167;DHT22;10741;52.272;9.580;2024-03-08T01:03:04;-0.60;99.90
21167;DHT22;10741;52.272;9.580;2024-03-08T01:05:30;-0.60;99.90
21167;DHT22;10741;52.272;9.580;2024-03-08T01:07:56;-0.60;99.90
21167;DHT22;10741;52.272;9.580;2024-03-08T01:10:21;-0.70;99.90
21167;DHT22;10741;52.272;9.580;2024-03-08T01:12:48;-0.60;99.90
21167;DHT22;10741;52.272;9.580;2024-03-08T01:15:15;-0.60;99.90
21167;DHT22;10741;52.272;9.580;2024-03-08T01:17:41;-0.60;99.90
21167;DHT22;10741;52.272;9.580;2024-03-08T01:20:07;-0.60;99.90
21167;DHT22;10741;52.272;9.580;2024-03-08T01:22:33;-0.60;99.90
21167;DHT22;10741;52.272;9.580;2024-03-08T01:24:59;-0.60;99.90
21167;DHT22;10741;52.272;9.580;2024-03-08T01:27:25;-0.60;99.90
21167;DHT22;10741;52.272;9.580;2024-03-08T01:29:50;-0.70;99.90
21167;DHT22;10741;52.272;9.580;2024-03-08T01:32:16;-0.60;99.90
21167;DHT22;10741;52.272;9.580;2024-03-08T01:34:41;-0.70;99.90
21167;DHT22;10741;52.272;9.580;2024-03-08T01:37:07;-0.70;99.90
21167;DHT22;10741;52.272;9.580;2024-03-08T01:39:33;-0.70;99.90
21167;DHT22;10741;52.272;9.580;2024-03-08T01:41:59;-0.80;99.90
21167;DHT22;10741;52.272;9.580;2024-03-08T01:44:26;-0.80;99.90
21167;DHT22;10741;52.272;9.580;2024-03-08T01:46:52;-0.80;99.90
21167;DHT22;10741;52.272;9.580;2024-03-08T01:49:19;-0.80;99.90
21167;DHT22;10741;52.272;9.580;2024-03-08T01:51:47;-0.90;99.90
21167;DHT22;10741;52.272;9.580;2024-03-08T01:54:15;-0.90;99.90
21167;DHT22;10741;52.272;9.580;2024-03-08T01:56:41;-0.80;99.90
21167;DHT22;10741;52.272;9.580;2024-03-08T01:59:07;-0.90;99.90
21167;DHT22;10741;52.272;9.580;2024-03-08T02:01:33;-0.90;99.90
21167;DHT22;10741;52.272;9.580;2024-03-08T02:03:59;-0.80;99.90
21167;DHT22;10741;52.272;9.580;2024-03-08T02:06:25;-0.80;99.90
21167;DHT22;10741;52.272;9.580;2024-03-08T02:08:51;-0.90;99.90
21167;DHT22;10741;52.272;9.580;2024-03-08T02:11:17;-0.90;99.90
21167;DHT22;10741;52.272;9.580;2024-03-08T02:13:44;-1.00;99.90
21167;DHT22;10741;52.272;9.580;2024-03-08T02:16:09;-0.90;99.90
21167;DHT22;10741;52.272;9.580;2024-03-08T02:18:36;-0.90;99.90
21167;DHT22;10741;52.272;9.580;2024-03-08T02:21:03;-0.90;99.90
21167;DHT22;10741;52.272;9.580;2024-03-08T02:23:29;-0.90;99.90
21167;DHT22;10741;52.272;9.580;2024-03-08T02:25:56;-0.90;99.90
21167;DHT22;10741;52.272;9.580;2024-03-08T02:28:23;-0.90;99.90
21167;DHT22;10741;52.272;9.580;2024-03-08T02:30:49;-0.80;99.90
21167;DHT22;10741;52.272;9.580;2024-03-08T02:33:17;-0.70;99.90
21167;DHT22;10741;52.272;9.580;2024-03-08T02:35:46;-0.70;99.90
21167;DHT22;10741;52.272;9.580;2024-03-08T02:38:16;-0.70;99.90
21167;DHT22;10741;52.272;9.580;2024-03-08T02:40:43;-0.80;99.90
21167;DHT22;10741;52.272;9.580;2024-03-08T02:43:10;-0.80;99.90
21167;DHT22;10741;52.272;9.580;2024-03-08T02:45:36;-0.80;99.90
21167;DHT22;10741;52.272;9.580;2024-03-08T02:48:01;-0.60;99.90
21167;DHT22;10741;52.272;9.580;2024-03-08T02:50:27;-0.60;99.90
21167;DHT22;10741;52.272;9.580;2024-03-08T02:52:54;-0.50;99.90
21167;DHT22;10741;52.272;9.580;2024-03-08T02:55:19;-0.40;99.90
21167;DHT22;10741;52.272;9.580;2024-03-08T02:57:46;-0.40;99.90
21167;DHT22;10741;52.272;9.580;2024-03-08T03:00:13;-0.50;99.90
21167;DHT22;10741;52.272;9.580;2024-03-08T03:02:39;-0.60;99.90
21167;DHT22;10741;52.272;9.580;2024-03-08T03:05:05;-0.60;99.90
21167;DHT22;10741;52.272;9.580;2024-03-08T03:07:35;-0.60;99.90
21167;DHT22;10741;52.272;9.580;2024-03-08T03:10:01;-0.60;99.90
21167;DHT22;10741;52.272;9.580;2024-03-08T03:12:31;-0.70;99.90
21167;DHT22;10741;52.272;9.580;2024-03-08T03:15:00;-0.80;99.90
21167;DHT22;10741;52.272;9.580;2024-03-08T03:17:26;-0.80;99.90
21167;DHT22;10741;52.272;9.580;2024-03-08T03:19:52;-0.90;99.90
21167;DHT22;10741;52.272;9.580;2024-03-08T03:22:18;-0.90;99.90
21167;DHT22;10741;52.272;9.580;2024-03-08T03:24:45;-1.00;99.90
21167;DHT22;10741;52.272;9.580;2024-03-08T03:27:12;-0.90;99.90
21167;DHT22;10741;52.272;9.580;2024-03-08T03:29:42;-0.80;99.90
21167;DHT22;10741;52.272;9.580;2024-03-08T03:32:11;-0.80;99.90
21167;DHT22;10741;52.272;9.580;2024-03-08T03:34:38;-0.90;99.90
21167;DHT22;10741;52.272;9.580;2024-03-08T03:37:04;-1.00;99.90
21167;DHT22;10741;52.272;9.580;2024-03-08T03:39:30;-0.90;99.90
21167;DHT22;10741;52.272;9.580;2024-03-08T03:42:00;-1.00;99.90
21167;DHT22;10741;52.272;9.580;2024-03-08T03:44:28;-0.90;99.90
21167;DHT22;10741;52.272;9.580;2024-03-08T03:46:53;-1.00;99.90
21167;DHT22;10741;52.272;9.580;2024-03-08T03:49:19;-1.00;99.90
21167;DHT22;10741;52.272;9.580;2024-03-08T03:51:45;-1.10;99.90
21167;DHT22;10741;52.272;9.580;2024-03-08T03:54:11;-1.10;99.90
21167;DHT22;10741;52.272;9.580;2024-03-08T03:56:37;-1.10;99.90
21167;DHT22;10741;52.272;9.580;2024-03-08T03:59:03;-1.10;99.90
21167;DHT22;10741;52.272;9.580;2024-03-08T04:01:29;-1.10;99.90
21167;DHT22;10741;52.272;9.580;2024-03-08T04:03:55;-1.00;99.90
21167;DHT22;10741;52.272;9.580;2024-03-08T04:06:20;-1.00;99.90
21167;DHT22;10741;52.272;9.580;2024-03-08T04:08:47;-1.10;99.90
21167;DHT22;10741;52.272;9.580;2024-03-08T04:11:13;-1.10;99.90
21167;DHT22;10741;52.272;9.580;2024-03-08T04:13:41;-1.20;99.90
21167;DHT22;10741;52.272;9.580;2024-03-08T04:16:07;-1.20;99.90
21167;DHT22;10741;52.272;9.580;2024-03-08T04:18:34;-1.20;99.90
21167;DHT22;10741;52.272;9.580;2024-03-08T04:21:02;-1.20;99.90
21167;DHT22;10741;52.272;9.580;2024-03-08T04:23:28;-1.20;99.90
21167;DHT22;10741;52.272;9.580;2024-03-08T04:25:54;-1.20;99.90
21167;DHT22;10741;52.272;9.580;2024-03-08T04:28:19;-1.20;99.90
21167;DHT22;10741;52.272;9.580;2024-03-08T04:30:45;-1.30;99.90
21167;DHT22;10741;52.272;9.580;2024-03-08T04:33:11;-1.30;99.90
21167;DHT22;10741;52.272;9.580;2024-03-08T04:35:37;-1.20;99.90
21167;DHT22;10741;52.272;9.580;2024-03-08T04:38:03;-1.20;99.90
21167;DHT22;10741;52.272;9.580;2024-03-08T04:40:31;-1.20;99.90
21167;DHT22;10741;52.272;9.580;2024-03-08T04:42:57;-1.20;99.90
21167;DHT22;10741;52.272;9.580;2024-03-08T04:45:24;-1.10;99.90
21167;DHT22;10741;52.272;9.580;2024-03-08T04:47:51;-1.10;99.90
21167;DHT22;10741;52.272;9.580;2024-03-08T04:50:18;-1.10;99.90
21167;DHT22;10741;52.272;9.580;2024-03-08T04:52:43;-1.10;99.90
21167;DHT22;10741;52.272;9.580;2024-03-08T04:55:09;-1.10;99.90
21167;DHT22;10741;52.272;9.580;2024-03-08T04:57:35;-1.20;99.90
21167;DHT22;10741;52.272;9.580;2024-03-08T05:00:02;-1.30;99.90
21167;DHT22;10741;52.272;9.580;2024-03-08T05:02:29;-1.40;99.90
21167;DHT22;10741;52.272;9.580;2024-03-08T05:04:55;-1.40;99.90
21167;DHT22;10741;52.272;9.580;2024-03-08T05:07:21;-1.40;99.90
21167;DHT22;10741;52.272;9.580;2024-03-08T05:09:46;-1.50;99.90
21167;DHT22;10741;52.272;9.580;2024-03-08T05:12:18;-1.40;99.90
21167;DHT22;10741;52.272;9.580;2024-03-08T05:14:45;-1.40;99.90
21167;DHT22;10741;52.272;9.580;2024-03-08T05:17:12;-1.50;99.90
21167;DHT22;10741;52.272;9.580;2024-03-08T05:19:37;-1.50;99.90
21167;DHT22;10741;52.272;9.580;2024-03-08T05:22:03;-1.60;99.90
21167;DHT22;10741;52.272;9.580;2024-03-08T05:24:30;-1.60;99.90
21167;DHT22;10741;52.272;9.580;2024-03-08T05:26:55;-1.60;99.90
21167;DHT22;10741;52.272;9.580;2024-03-08T05:29:21;-1.70;99.90
21167;DHT22;10741;52.272;9.580;2024-03-08T05:31:50;-1.70;99.90
21167;DHT22;10741;52.272;9.580;2024-03-08T05:34:18;-1.60;99.90
21167;DHT22;10741;52.272;9.580;2024-03-08T05:36:45;-1.60;99.90
21167;DHT22;10741;52.272;9.580;2024-03-08T05:39:18;-1.60;99.90
21167;DHT22;10741;52.272;9.580;2024-03-08T05:41:45;-1.50;99.90
21167;DHT22;10741;52.272;9.580;2024-03-08T05:44:11;-1.50;99.90
21167;DHT22;10741;52.272;9.580;2024-03-08T05:46:37;-1.50;99.90
21167;DHT22;10741;52.272;9.580;2024-03-08T05:49:03;-1.50;99.90
21167;DHT22;10741;52.272;9.580;2024-03-08T05:51:31;-1.50;99.90
21167;DHT22;10741;52.272;9.580;2024-03-08T05:54:02;-1.50;99.90
21167;DHT22;10741;52.272;9.580;2024-03-08T05:56:29;-1.40;99.90
21167;DHT22;10741;52.272;9.580;2024-03-08T05:58:55;-1.40;99.90
21167;DHT22;10741;52.272;9.580;2024-03-08T06:01:20;-1.40;99.90
21167;DHT22;10741;52.272;9.580;2024-03-08T06:03:47;-1.40;99.90
21167;DHT22;10741;52.272;9.580;2024-03-08T06:06:14;-1.40;99.90
21167;DHT22;10741;52.272;9.580;2024-03-08T06:08:41;-1.50;99.90
21167;DHT22;10741;52.272;9.580;2024-03-08T06:11:08;-1.50;99.90
21167;DHT22;10741;52.272;9.580;2024-03-08T06:13:34;-1.50;99.90
21167;DHT22;10741;52.272;9.580;2024-03-08T06:16:00;-1.50;99.90
21167;DHT22;10741;52.272;9.580;2024-03-08T06:18:30;-1.50;99.90
21167;DHT22;10741;52.272;9.580;2024-03-08T06:20:56;-1.50;99.90
21167;DHT22;10741;52.272;9.580;2024-03-08T06:23:22;-1.30;99.90
21167;DHT22;10741;52.272;9.580;2024-03-08T06:25:47;-1.20;99.90
21167;DHT22;10741;52.272;9.580;2024-03-08T06:28:13;-1.10;99.90
21167;DHT22;10741;52.272;9.580;2024-03-08T06:30:40;-1.10;99.90
21167;DHT22;10741;52.272;9.580;2024-03-08T06:33:05;-1.00;99.90
21167;DHT22;10741;52.272;9.580;2024-03-08T06:35:32;-0.90;99.90
21167;DHT22;10741;52.272;9.580;2024-03-08T06:37:58;-0.90;99.90
21167;DHT22;10741;52.272;9.580;2024-03-08T06:40:24;-0.80;99.90
21167;DHT22;10741;52.272;9.580;2024-03-08T06:42:49;-0.60;99.90
21167;DHT22;10741;52.272;9.580;2024-03-08T06:45:17;-0.60;99.90
21167;DHT22;10741;52.272;9.580;2024-03-08T06:47:46;-0.50;99.90
21167;DHT22;10741;52.272;9.580;2024-03-08T06:50:12;-0.30;99.90
21167;DHT22;10741;52.272;9.580;2024-03-08T06:52:38;-0.20;99.90
21167;DHT22;10741;52.272;9.580;2024-03-08T06:55:04;-0.10;99.90
21167;DHT22;10741;52.272;9.580;2024-03-08T06:57:31;0.00;99.90
21167;DHT22;10741;52.272;9.580;2024-03-08T06:59:57;0.10;99.90
21167;DHT22;10741;52.272;9.580;2024-03-08T07:02:23;0.20;99.90
21167;DHT22;10741;52.272;9.580;2024-03-08T07:04:52;0.30;99.90
21167;DHT22;10741;52.272;9.580;2024-03-08T07:07:18;0.30;99.90
21167;DHT22;10741;52.272;9.580;2024-03-08T07:09:46;0.30;99.90
21167;DHT22;10741;52.272;9.580;2024-03-08T07:12:12;0.40;99.90
21167;DHT22;10741;52.272;9.580;2024-03-08T07:14:39;0.50;99.90
21167;DHT22;10741;52.272;9.580;2024-03-08T07:17:07;0.60;99.90
21167;DHT22;10741;52.272;9.580;2024-03-08T07:19:34;0.70;99.90
21167;DHT22;10741;52.272;9.580;2024-03-08T07:22:01;0.90;99.90
21167;DHT22;10741;52.272;9.580;2024-03-08T07:24:29;1.20;99.90
21167;DHT22;10741;52.272;9.580;2024-03-08T07:27:23;1.50;99.90
21167;DHT22;10741;52.272;9.580;2024-03-08T07:29:49;1.80;99.90
21167;DHT22;10741;52.272;9.580;2024-03-08T07:32:14;2.00;99.90
21167;DHT22;10741;52.272;9.580;2024-03-08T07:34:49;2.20;99.90
21167;DHT22;10741;52.272;9.580;2024-03-08T07:37:18;2.30;99.90
21167;DHT22;10741;52.272;9.580;2024-03-08T07:39:45;2.50;99.90
21167;DHT22;10741;52.272;9.580;2024-03-08T07:42:11;2.80;99.90
21167;DHT22;10741;52.272;9.580;2024-03-08T07:44:37;2.80;99.90
21167;DHT22;10741;52.272;9.580;2024-03-08T07:47:03;2.80;99.90
21167;DHT22;10741;52.272;9.580;2024-03-08T07:49:29;2.70;99.90
21167;DHT22;10741;52.272;9.580;2024-03-08T07:51:58;2.70;99.90
21167;DHT22;10741;52.272;9.580;2024-03-08T07:54:25;2.90;99.90
21167;DHT22;10741;52.272;9.580;2024-03-08T07:56:51;3.00;99.90
21167;DHT22;10741;52.272;9.580;2024-03-08T07:59:18;3.20;99.90
21167;DHT22;10741;52.272;9.580;2024-03-08T08:01:43;3.20;99.90
21167;DHT22;10741;52.272;9.580;2024-03-08T08:04:10;3.30;99.90
21167;DHT22;10741;52.272;9.580;2024-03-08T08:06:39;3.40;99.90
21167;DHT22;10741;52.272;9.580;2024-03-08T08:09:07;3.60;99.90
21167;DHT22;10741;52.272;9.580;2024-03-08T08:11:40;3.70;99.90
21167;DHT22;10741;52.272;9.580;2024-03-08T08:14:09;3.80;99.90
21167;DHT22;10741;52.272;9.580;2024-03-08T08:16:36;4.00;99.90
21167;DHT22;10741;52.272;9.580;2024-03-08T08:19:07;4.30;99.90
21167;DHT22;10741;52.272;9.580;2024-03-08T08:21:36;4.60;99.90
21167;DHT22;10741;52.272;9.580;2024-03-08T08:24:05;5.10;99.90
21167;DHT22;10741;52.272;9.580;2024-03-08T08:26:31;5.50;99.90
21167;DHT22;10741;52.272;9.580;2024-03-08T08:28:58;5.90;99.90
21167;DHT22;10741;52.272;9.580;2024-03-08T08:31:25;6.20;99.90
21167;DHT22;10741;52.272;9.580;2024-03-08T08:33:50;6.40;99.90
21167;DHT22;10741;52.272;9.580;2024-03-08T08:36:19;6.60;99.90
21167;DHT22;10741;52.272;9.580;2024-03-08T08:38:44;6.80;99.90
21167;DHT22;10741;52.272;9.580;2024-03-08T08:41:11;7.20;99.90
21167;DHT22;10741;52.272;9.580;2024-03-08T08:43:37;7.30;99.90
21167;DHT22;10741;52.272;9.580;2024-03-08T08:46:04;7.30;99.90
21167;DHT22;10741;52.272;9.580;2024-03-08T08:48:30;7.50;99.90
21167;DHT22;10741;52.272;9.580;2024-03-08T08:50:56;7.60;99.90
21167;DHT22;10741;52.272;9.580;2024-03-08T08:53:21;7.80;99.90
21167;DHT22;10741;52.272;9.580;2024-03-08T08:55:47;8.00;99.90
21167;DHT22;10741;52.272;9.580;2024-03-08T08:58:13;8.00;99.90
21167;DHT22;10741;52.272;9.580;2024-03-08T09:00:39;8.00;99.90
21167;DHT22;10741;52.272;9.580;2024-03-08T09:03:05;8.10;99.90
21167;DHT22;10741;52.272;9.580;2024-03-08T09:05:32;8.10;99.90
21167;DHT22;10741;52.272;9.580;2024-03-08T09:07:59;8.20;99.90
21167;DHT22;10741;52.272;9.580;2024-03-08T09:10:25;8.40;99.90
21167;DHT22;10741;52.272;9.580;2024-03-08T09:12:51;8.10;99.90
21167;DHT22;10741;52.272;9.580;2024-03-08T09:15:16;8.20;99.90
21167;DHT22;10741;52.272;9.580;2024-03-08T09:17:43;8.40;99.90
21167;DHT22;10741;52.272;9.580;2024-03-08T09:20:10;8.30;99.90
21167;DHT22;10741;52.272;9.580;2024-03-08T09:22:39;8.20;99.90
21167;DHT22;10741;52.272;9.580;2024-03-08T09:25:06;7.80;99.90
21167;DHT22;10741;52.272;9.580;2024-03-08T09:27:33;7.70;99.90
21167;DHT22;10741;52.272;9.580;2024-03-08T09:29:59;8.00;99.90
21167;DHT22;10741;52.272;9.580;2024-03-08T09:32:25;8.20;99.90
21167;DHT22;10741;52.272;9.580;2024-03-08T09:34:51;8.20;99.90
21167;DHT22;10741;52.272;9.580;2024-03-08T09:37:18;8.30;99.90
21167;DHT22;10741;52.272;9.580;2024-03-08T09:39:44;8.20;99.90
21167;DHT22;10741;52.272;9.580;2024-03-08T09:42:10;8.30;99.90
21167;DHT22;10741;52.272;9.580;2024-03-08T09:44:44;8.40;99.90
21167;DHT22;10741;52.272;9.580;2024-03-08T09:47:13;8.40;99.90
21167;DHT22;10741;52.272;9.580;2024-03-08T09:49:39;8.40;99.90
21167;DHT22;10741;52.272;9.580;2024-03-08T09:52:07;8.40;99.90
21167;DHT22;10741;52.272;9.580;2024-03-08T09:54:33;8.30;99.90
21167;DHT22;10741;52.272;9.580;2024-03-08T09:56:59;8.50;99.90
21167;DHT22;10741;52.272;9.580;2024-03-08T09:59:28;8.60;99.90
21167;DHT22;10741;52.272;9.580;2024-03-08T10:01:54;8.70;99.90
21167;DHT22;10741;52.272;9.580;2024-03-08T10:04:24;8.30;99.90
21167;DHT22;10741;52.272;9.580;2024-03-08T10:06:51;8.40;99.90
21167;DHT22;10741;52.272;9.580;2024-03-08T10:09:17;8.20;99.90
21167;DHT22;10741;52.272;9.580;2024-03-08T10:11:44;8.30;99.90
21167;DHT22;10741;52.272;9.580;2024-03-08T10:14:10;8.20;99.90
21167;DHT22;10741;52.272;9.580;2024-03-08T10:16:37;8.30;99.90
21167;DHT22;10741;52.272;9.580;2024-03-08T10:19:03;8.50;99.90
21167;DHT22;10741;52.272;9.580;2024-03-08T10:21:32;8.30;99.90
21167;DHT22;10741;52.272;9.580;2024-03-08T10:23:58;8.40;99.90
21167;DHT22;10741;52.272;9.580;2024-03-08T10:26:25;8.30;99.90
21167;DHT22;10741;52.272;9.580;2024-03-08T10:28:53;8.20;99.90
21167;DHT22;10741;52.272;9.580;2024-03-08T10:31:20;8.10;99.90
21167;DHT22;10741;52.272;9.580;2024-03-08T10:33:46;8.10;99.90
21167;DHT22;10741;52.272;9.580;2024-03-08T10:36:13;8.00;99.90
21167;DHT22;10741;52.272;9.580;2024-03-08T10:38:41;8.10;99.90
21167;DHT22;10741;52.272;9.580;2024-03-08T10:41:09;8.20;99.90
21167;DHT22;10741;52.272;9.580;2024-03-08T10:49:31;8.10;99.90
21167;DHT22;10741;52.272;9.580;2024-03-08T10:52:02;8.20;99.90
21167;DHT22;10741;52.272;9.580;2024-03-08T10:54:31;8.50;99.90
21167;DHT22;10741;52.272;9.580;2024-03-08T10:56:59;9.30;99.90
21167;DHT22;10741;52.272;9.580;2024-03-08T10:59:25;8.90;99.90
21167;DHT22;10741;52.272;9.580;2024-03-08T11:01:53;8.70;99.90
21167;DHT22;10741;52.272;9.580;2024-03-08T11:04:18;8.80;99.90
21167;DHT22;10741;52.272;9.580;2024-03-08T11:06:52;9.00;99.90
21167;DHT22;10741;52.272;9.580;2024-03-08T11:09:37;8.80;99.90
21167;DHT22;10741;52.272;9.580;2024-03-08T11:12:23;8.90;99.90
21167;DHT22;10741;52.272;9.580;2024-03-08T11:15:09;9.00;99.90
21167;DHT22;10741;52.272;9.580;2024-03-08T11:17:46;9.00;99.90
21167;DHT22;10741;52.272;9.580;2024-03-08T11:20:15;9.40;99.90
21167;DHT22;10741;52.272;9.580;2024-03-08T11:22:54;9.40;99.90
21167;DHT22;10741;52.272;9.580;2024-03-08T11:28:16;9.70;99.90
21167;DHT22;10741;52.272;9.580;2024-03-08T11:33:26;10.10;99.90
21167;DHT22;10741;52.272;9.580;2024-03-08T11:35:52;10.30;99.90
21167;DHT22;10741;52.272;9.580;2024-03-08T11:38:18;10.20;99.90
21167;DHT22;10741;52.272;9.580;2024-03-08T11:40:46;10.70;99.90
21167;DHT22;10741;52.272;9.580;2024-03-08T11:43:18;10.50;99.90
21167;DHT22;10741;52.272;9.580;2024-03-08T11:45:46;10.30;99.90
21167;DHT22;10741;52.272;9.580;2024-03-08T11:48:15;10.50;99.90
21167;DHT22;10741;52.272;9.580;2024-03-08T11:50:41;10.10;99.90
21167;DHT22;10741;52.272;9.580;2024-03-08T11:53:08;10.00;99.90
21167;DHT22;10741;52.272;9.580;2024-03-08T11:55:37;10.10;99.90
21167;DHT22;10741;52.272;9.580;2024-03-08T11:58:05;10.20;99.90
21167;DHT22;10741;52.272;9.580;2024-03-08T12:00:33;11.60;99.90
21167;DHT22;10741;52.272;9.580;2024-03-08T12:03:05;10.60;99.90
21167;DHT22;10741;52.272;9.580;2024-03-08T12:05:32;10.70;99.90
21167;DHT22;10741;52.272;9.580;2024-03-08T12:07:59;10.60;99.90
21167;DHT22;10741;52.272;9.580;2024-03-08T12:10:28;11.00;99.90
21167;DHT22;10741;52.272;9.580;2024-03-08T12:12:57;11.30;99.90
21167;DHT22;10741;52.272;9.580;2024-03-08T12:15:25;10.90;99.90
21167;DHT22;10741;52.272;9.580;2024-03-08T12:17:55;11.20;99.90
21167;DHT22;10741;52.272;9.580;2024-03-08T12:20:26;11.70;99.90
21167;DHT22;10741;52.272;9.580;2024-03-08T12:22:55;12.20;99.90
21167;DHT22;10741;52.272;9.580;2024-03-08T12:25:33;11.50;99.90
21167;DHT22;10741;52.272;9.580;2024-03-08T12:28:12;11.60;99.90
21167;DHT22;10741;52.272;9.580;2024-03-08T12:30:49;11.30;99.90
21167;DHT22;10741;52.272;9.580;2024-03-08T12:33:20;11.30;99.90
21167;DHT22;10741;52.272;9.580;2024-03-08T12:35:55;11.40;99.90
21167;DHT22;10741;52.272;9.580;2024-03-08T12:38:21;11.40;99.90
21167;DHT22;10741;52.272;9.580;2024-03-08T12:40:58;11.40;99.90
21167;DHT22;10741;52.272;9.580;2024-03-08T12:43:24;11.50;99.90
21167;DHT22;10741;52.272;9.580;2024-03-08T12:45:50;11.20;99.90
21167;DHT22;10741;52.272;9.580;2024-03-08T12:48:19;11.50;99.90
21167;DHT22;10741;52.272;9.580;2024-03-08T12:50:46;11.80;99.90
21167;DHT22;10741;52.272;9.580;2024-03-08T12:53:13;11.90;99.90
21167;DHT22;10741;52.272;9.580;2024-03-08T12:55:39;12.20;99.90
21167;DHT22;10741;52.272;9.580;2024-03-08T12:58:06;11.90;99.90
21167;DHT22;10741;52.272;9.580;2024-03-08T13:00:34;11.90;99.90
21167;DHT22;10741;52.272;9.580;2024-03-08T13:03:02;12.10;99.90
21167;DHT22;10741;52.272;9.580;2024-03-08T13:05:31;12.40;99.90
21167;DHT22;10741;52.272;9.580;2024-03-08T13:07:56;12.30;99.90
21167;DHT22;10741;52.272;9.580;2024-03-08T13:10:22;12.40;99.90
21167;DHT22;10741;52.272;9.580;2024-03-08T13:12:50;12.80;99.90
21167;DHT22;10741;52.272;9.580;2024-03-08T13:15:23;12.60;99.90
21167;DHT22;10741;52.272;9.580;2024-03-08T13:17:49;12.50;99.90
21167;DHT22;10741;52.272;9.580;2024-03-08T13:20:17;12.50;99.90
21167;DHT22;10741;52.272;9.580;2024-03-08T13:22:48;12.70;99.90
21167;DHT22;10741;52.272;9.580;2024-03-08T13:25:13;12.30;99.90
21167;DHT22;10741;52.272;9.580;2024-03-08T13:27:44;12.20;99.90
21167;DHT22;10741;52.272;9.580;2024-03-08T13:30:11;12.30;99.90
21167;DHT22;10741;52.272;9.580;2024-03-08T13:32:44;12.00;99.90
21167;DHT22;10741;52.272;9.580;2024-03-08T13:35:13;12.20;99.90
21167;DHT22;10741;52.272;9.580;2024-03-08T13:37:40;12.20;99.90
21167;DHT22;10741;52.272;9.580;2024-03-08T13:40:06;12.40;99.90
21167;DHT22;10741;52.272;9.580;2024-03-08T13:42:40;12.50;99.90
21167;DHT22;10741;52.272;9.580;2024-03-08T13:45:09;12.30;99.90
21167;DHT22;10741;52.272;9.580;2024-03-08T13:47:39;11.90;99.90
21167;DHT22;10741;52.272;9.580;2024-03-08T13:50:10;11.70;99.90
21167;DHT22;10741;52.272;9.580;2024-03-08T13:52:41;12.00;99.90
21167;DHT22;10741;52.272;9.580;2024-03-08T13:55:09;12.20;99.90
21167;DHT22;10741;52.272;9.580;2024-03-08T13:57:35;12.00;99.90
21167;DHT22;10741;52.272;9.580;2024-03-08T14:00:01;12.00;99.90
21167;DHT22;10741;52.272;9.580;2024-03-08T14:02:26;12.30;99.90
21167;DHT22;10741;52.272;9.580;2024-03-08T14:04:57;12.30;99.90
21167;DHT22;10741;52.272;9.580;2024-03-08T14:07:23;12.10;99.90
21167;DHT22;10741;52.272;9.580;2024-03-08T14:09:51;11.70;99.90
21167;DHT22;10741;52.272;9.580;2024-03-08T14:12:18;12.40;99.90
21167;DHT22;10741;52.272;9.580;2024-03-08T14:14:44;12.30;99.90
21167;DHT22;10741;52.272;9.580;2024-03-08T14:17:10;12.10;99.90
21167;DHT22;10741;52.272;9.580;2024-03-08T14:19:43;12.20;99.90
21167;DHT22;10741;52.272;9.580;2024-03-08T14:22:08;12.00;99.90
21167;DHT22;10741;52.272;9.580;2024-03-08T14:24:36;11.80;99.90
21167;DHT22;10741;52.272;9.580;2024-03-08T14:27:03;12.10;99.90
21167;DHT22;10741;52.272;9.580;2024-03-08T14:29:29;11.80;99.90
21167;DHT22;10741;52.272;9.580;2024-03-08T14:31:58;11.90;99.90
21167;DHT22;10741;52.272;9.580;2024-03-08T14:34:25;11.80;99.90
21167;DHT22;10741;52.272;9.580;2024-03-08T14:36:56;11.50;99.90
21167;DHT22;10741;52.272;9.580;2024-03-08T14:39:22;11.40;99.90
21167;DHT22;10741;52.272;9.580;2024-03-08T14:41:52;11.30;99.90
21167;DHT22;10741;52.272;9.580;2024-03-08T14:44:22;11.20;99.90
21167;DHT22;10741;52.272;9.580;2024-03-08T14:46:57;11.00;99.90
21167;DHT22;10741;52.272;9.580;2024-03-08T14:49:24;10.90;99.90
21167;DHT22;10741;52.272;9.580;2024-03-08T14:51:51;11.10;99.90
21167;DHT22;10741;52.272;9.580;2024-03-08T14:54:17;11.00;99.90
21167;DHT22;10741;52.272;9.580;2024-03-08T14:56:48;11.00;99.90
21167;DHT22;10741;52.272;9.580;2024-03-08T14:59:17;11.10;99.90
21167;DHT22;10741;52.272;9.580;2024-03-08T15:01:45;10.80;99.90
21167;DHT22;10741;52.272;9.580;2024-03-08T15:04:11;10.90;99.90
21167;DHT22;10741;52.272;9.580;2024-03-08T15:06:37;11.40;99.90
21167;DHT22;10741;52.272;9.580;2024-03-08T15:09:04;10.60;99.90
21167;DHT22;10741;52.272;9.580;2024-03-08T15:11:46;10.50;99.90
21167;DHT22;10741;52.272;9.580;2024-03-08T15:14:14;10.30;99.90
21167;DHT22;10741;52.272;9.580;2024-03-08T15:16:41;10.30;99.90
21167;DHT22;10741;52.272;9.580;2024-03-08T15:19:08;10.40;99.90
21167;DHT22;10741;52.272;9.580;2024-03-08T15:21:34;10.20;99.90
21167;DHT22;10741;52.272;9.580;2024-03-08T15:24:00;10.40;99.90
21167;DHT22;10741;52.272;9.580;2024-03-08T15:26:30;10.10;99.90
21167;DHT22;10741;52.272;9.580;2024-03-08T15:28:57;10.10;99.90
21167;DHT22;10741;52.272;9.580;2024-03-08T15:31:23;10.00;99.90
21167;DHT22;10741;52.272;9.580;2024-03-08T15:33:52;9.90;99.90
21167;DHT22;10741;52.272;9.580;2024-03-08T15:36:28;9.70;99.90
21167;DHT22;10741;52.272;9.580;2024-03-08T15:38:57;9.50;99.90
21167;DHT22;10741;52.272;9.580;2024-03-08T15:41:22;9.20;99.90
21167;DHT22;10741;52.272;9.580;2024-03-08T15:43:48;9.00;99.90
21167;DHT22;10741;52.272;9.580;2024-03-08T15:46:15;8.80;99.90
21167;DHT22;10741;52.272;9.580;2024-03-08T15:48:41;8.70;99.90